sensor_id;sensor_type;location;lat;lon;timestamp;P1;durP1;ratioP1;P2;durP2;ratioP2
43431;SDS011;40365;41.866;21.942;2022-07-15T00:00:18;5.47;;;2.75;;
43431;SDS011;40365;41.866;21.942;2022-07-15T00:02:44;6.88;;;2.83;;
43431;SDS011;40365;41.866;21.942;2022-07-15T00:05:10;6.82;;;2.90;;
43431;SDS011;40365;41.866;21.942;2022-07-15T00:08:05;6.75;;;3.15;;
43431;SDS011;40365;41.866;21.942;2022-07-15T00:10:31;5.32;;;2.40;;
43431;SDS011;40365;41.866;21.942;2022-07-15T00:14:18;5.18;;;2.28;;
43431;SDS011;40365;41.866;21.942;2022-07-15T00:32:43;6.30;;;2.13;;
43431;SDS011;40365;41.866;21.942;2022-07-15T00:35:09;4.38;;;1.98;;
43431;SDS011;40365;41.866;21.942;2022-07-15T00:38:43;4.85;;;2.35;;
43431;SDS011;40365;41.866;21.942;2022-07-15T00:42:14;24.40;;;2.58;;
43431;SDS011;40365;41.866;21.942;2022-07-15T00:45:00;5.55;;;2.67;;
43431;SDS011;40365;41.866;21.942;2022-07-15T00:47:26;7.55;;;2.60;;
43431;SDS011;40365;41.866;21.942;2022-07-15T00:51:27;5.25;;;2.00;;
43431;SDS011;40365;41.866;21.942;2022-07-15T00:55:49;4.53;;;2.20;;
43431;SDS011;40365;41.866;21.942;2022-07-15T00:59:36;4.40;;;1.88;;
43431;SDS011;40365;41.866;21.942;2022-07-15T01:02:31;5.00;;;1.88;;
43431;SDS011;40365;41.866;21.942;2022-07-15T01:07:52;9.57;;;2.63;;
43431;SDS011;40365;41.866;21.942;2022-07-15T01:12:12;7.30;;;2.58;;
43431;SDS011;40365;41.866;21.942;2022-07-15T01:15:55;6.38;;;2.38;;
43431;SDS011;40365;41.866;21.942;2022-07-15T01:19:48;7.05;;;2.20;;
43431;SDS011;40365;41.866;21.942;2022-07-15T01:22:14;4.25;;;1.90;;
43431;SDS011;40365;41.866;21.942;2022-07-15T01:25:44;4.50;;;2.28;;
43431;SDS011;40365;41.866;21.942;2022-07-15T01:29:52;5.93;;;2.25;;
43431;SDS011;40365;41.866;21.942;2022-07-15T01:32:18;6.05;;;2.00;;
43431;SDS011;40365;41.866;21.942;2022-07-15T01:34:44;7.50;;;2.83;;
43431;SDS011;40365;41.866;21.942;2022-07-15T01:37:53;6.25;;;2.60;;
43431;SDS011;40365;41.866;21.942;2022-07-15T01:42:56;10.50;;;3.00;;
43431;SDS011;40365;41.866;21.942;2022-07-15T01:45:22;8.45;;;3.15;;
43431;SDS011;40365;41.866;21.942;2022-07-15T01:47:48;9.43;;;3.80;;
43431;SDS011;40365;41.866;21.942;2022-07-15T01:50:15;8.75;;;3.20;;
43431;SDS011;40365;41.866;21.942;2022-07-15T01:53:03;8.13;;;3.90;;
43431;SDS011;40365;41.866;21.942;2022-07-15T01:57:25;9.77;;;3.10;;
43431;SDS011;40365;41.866;21.942;2022-07-15T01:59:51;5.72;;;2.40;;
43431;SDS011;40365;41.866;21.942;2022-07-15T02:02:17;4.88;;;2.33;;
43431;SDS011;40365;41.866;21.942;2022-07-15T02:04:43;12.05;;;3.17;;
43431;SDS011;40365;41.866;21.942;2022-07-15T02:07:09;12.25;;;3.97;;
43431;SDS011;40365;41.866;21.942;2022-07-15T02:09:35;8.75;;;3.25;;
43431;SDS011;40365;41.866;21.942;2022-07-15T02:12:02;10.70;;;3.40;;
43431;SDS011;40365;41.866;21.942;2022-07-15T02:14:28;9.15;;;3.22;;
43431;SDS011;40365;41.866;21.942;2022-07-15T02:16:54;7.03;;;2.83;;
43431;SDS011;40365;41.866;21.942;2022-07-15T02:19:20;6.93;;;2.90;;
43431;SDS011;40365;41.866;21.942;2022-07-15T02:24:38;7.10;;;2.47;;
43431;SDS011;40365;41.866;21.942;2022-07-15T02:27:05;8.05;;;3.42;;
43431;SDS011;40365;41.866;21.942;2022-07-15T02:31:57;8.10;;;3.22;;
43431;SDS011;40365;41.866;21.942;2022-07-15T02:37:24;8.18;;;3.55;;
43431;SDS011;40365;41.866;21.942;2022-07-15T02:39:50;8.20;;;3.20;;
43431;SDS011;40365;41.866;21.942;2022-07-15T02:54:46;8.18;;;2.70;;
43431;SDS011;40365;41.866;21.942;2022-07-15T02:57:12;6.38;;;2.67;;
43431;SDS011;40365;41.866;21.942;2022-07-15T02:59:38;6.28;;;3.03;;
43431;SDS011;40365;41.866;21.942;2022-07-15T03:02:04;6.32;;;2.50;;
43431;SDS011;40365;41.866;21.942;2022-07-15T03:04:31;6.38;;;2.90;;
43431;SDS011;40365;41.866;21.942;2022-07-15T03:06:57;9.85;;;2.88;;
43431;SDS011;40365;41.866;21.942;2022-07-15T03:09:23;6.72;;;2.67;;
43431;SDS011;40365;41.866;21.942;2022-07-15T03:11:49;5.88;;;2.67;;
43431;SDS011;40365;41.866;21.942;2022-07-15T03:14:15;6.32;;;2.90;;
43431;SDS011;40365;41.866;21.942;2022-07-15T03:19:42;5.22;;;2.35;;
43431;SDS011;40365;41.866;21.942;2022-07-15T03:22:08;5.88;;;2.35;;
43431;SDS011;40365;41.866;21.942;2022-07-15T03:24:34;4.88;;;2.22;;
43431;SDS011;40365;41.866;21.942;2022-07-15T03:27:00;6.75;;;2.90;;
43431;SDS011;40365;41.866;21.942;2022-07-15T03:31:00;8.13;;;2.28;;
43431;SDS011;40365;41.866;21.942;2022-07-15T03:37:43;10.65;;;2.88;;
43431;SDS011;40365;41.866;21.942;2022-07-15T03:40:09;6.70;;;2.78;;
43431;SDS011;40365;41.866;21.942;2022-07-15T03:49:21;10.35;;;3.63;;
43431;SDS011;40365;41.866;21.942;2022-07-15T03:52:41;7.55;;;3.17;;
43431;SDS011;40365;41.866;21.942;2022-07-15T03:55:07;9.40;;;3.50;;
43431;SDS011;40365;41.866;21.942;2022-07-15T03:57:35;6.72;;;2.50;;
43431;SDS011;40365;41.866;21.942;2022-07-15T04:01:54;7.55;;;3.05;;
43431;SDS011;40365;41.866;21.942;2022-07-15T04:04:20;11.45;;;5.00;;
43431;SDS011;40365;41.866;21.942;2022-07-15T04:13:00;7.28;;;3.28;;
43431;SDS011;40365;41.866;21.942;2022-07-15T04:17:23;6.32;;;2.50;;
43431;SDS011;40365;41.866;21.942;2022-07-15T04:19:49;7.88;;;2.53;;
43431;SDS011;40365;41.866;21.942;2022-07-15T04:22:15;5.85;;;2.80;;
43431;SDS011;40365;41.866;21.942;2022-07-15T04:25:31;5.60;;;2.30;;
43431;SDS011;40365;41.866;21.942;2022-07-15T04:27:57;6.07;;;3.03;;
43431;SDS011;40365;41.866;21.942;2022-07-15T04:32:11;4.97;;;2.30;;
43431;SDS011;40365;41.866;21.942;2022-07-15T04:35:07;6.43;;;2.70;;
43431;SDS011;40365;41.866;21.942;2022-07-15T04:37:34;4.75;;;2.03;;
43431;SDS011;40365;41.866;21.942;2022-07-15T04:40:00;7.25;;;2.20;;
43431;SDS011;40365;41.866;21.942;2022-07-15T04:43:07;5.28;;;2.45;;
43431;SDS011;40365;41.866;21.942;2022-07-15T04:45:48;4.22;;;2.15;;
43431;SDS011;40365;41.866;21.942;2022-07-15T04:48:15;6.20;;;2.20;;
43431;SDS011;40365;41.866;21.942;2022-07-15T04:51:00;3.97;;;1.80;;
43431;SDS011;40365;41.866;21.942;2022-07-15T04:53:26;5.57;;;2.47;;
43431;SDS011;40365;41.866;21.942;2022-07-15T04:58:34;4.43;;;1.98;;
43431;SDS011;40365;41.866;21.942;2022-07-15T05:01:00;3.53;;;1.85;;
43431;SDS011;40365;41.866;21.942;2022-07-15T05:07:03;6.18;;;2.30;;
43431;SDS011;40365;41.866;21.942;2022-07-15T05:09:29;5.68;;;2.17;;
43431;SDS011;40365;41.866;21.942;2022-07-15T05:11:55;4.63;;;1.90;;
43431;SDS011;40365;41.866;21.942;2022-07-15T05:16:02;3.75;;;1.90;;
43431;SDS011;40365;41.866;21.942;2022-07-15T05:19:28;4.93;;;2.45;;
43431;SDS011;40365;41.866;21.942;2022-07-15T05:23:32;4.22;;;2.05;;
43431;SDS011;40365;41.866;21.942;2022-07-15T05:25:58;5.45;;;1.90;;
43431;SDS011;40365;41.866;21.942;2022-07-15T05:30:42;5.82;;;2.30;;
43431;SDS011;40365;41.866;21.942;2022-07-15T05:33:08;6.03;;;1.67;;
43431;SDS011;40365;41.866;21.942;2022-07-15T05:35:34;6.72;;;2.00;;
43431;SDS011;40365;41.866;21.942;2022-07-15T05:38:01;5.85;;;1.98;;
43431;SDS011;40365;41.866;21.942;2022-07-15T05:40:27;5.05;;;1.90;;
43431;SDS011;40365;41.866;21.942;2022-07-15T05:45:24;3.63;;;1.90;;
43431;SDS011;40365;41.866;21.942;2022-07-15T05:47:51;3.63;;;1.90;;
43431;SDS011;40365;41.866;21.942;2022-07-15T05:50:18;4.07;;;1.45;;
43431;SDS011;40365;41.866;21.942;2022-07-15T05:54:32;8.73;;;2.83;;
43431;SDS011;40365;41.866;21.942;2022-07-15T05:56:59;5.13;;;2.58;;
43431;SDS011;40365;41.866;21.942;2022-07-15T06:00:54;5.10;;;1.92;;
43431;SDS011;40365;41.866;21.942;2022-07-15T06:03:20;3.92;;;1.80;;
43431;SDS011;40365;41.866;21.942;2022-07-15T06:06:32;4.82;;;2.00;;
43431;SDS011;40365;41.866;21.942;2022-07-15T06:08:59;4.28;;;2.00;;
43431;SDS011;40365;41.866;21.942;2022-07-15T06:11:25;6.00;;;2.85;;
43431;SDS011;40365;41.866;21.942;2022-07-15T06:13:51;5.38;;;2.40;;
43431;SDS011;40365;41.866;21.942;2022-07-15T06:21:02;5.30;;;2.00;;
43431;SDS011;40365;41.866;21.942;2022-07-15T06:25:55;4.95;;;1.88;;
43431;SDS011;40365;41.866;21.942;2022-07-15T06:28:22;4.85;;;2.40;;
43431;SDS011;40365;41.866;21.942;2022-07-15T06:30:48;8.40;;;2.50;;
43431;SDS011;40365;41.866;21.942;2022-07-15T06:33:14;4.88;;;2.42;;
43431;SDS011;40365;41.866;21.942;2022-07-15T06:35:40;4.22;;;2.03;;
43431;SDS011;40365;41.866;21.942;2022-07-15T06:38:06;5.07;;;2.35;;
43431;SDS011;40365;41.866;21.942;2022-07-15T06:42:46;5.00;;;2.08;;
43431;SDS011;40365;41.866;21.942;2022-07-15T06:45:13;5.93;;;1.90;;
43431;SDS011;40365;41.866;21.942;2022-07-15T06:47:39;3.58;;;1.88;;
43431;SDS011;40365;41.866;21.942;2022-07-15T06:50:06;4.68;;;1.90;;
43431;SDS011;40365;41.866;21.942;2022-07-15T06:52:32;3.78;;;1.88;;
43431;SDS011;40365;41.866;21.942;2022-07-15T06:54:59;3.97;;;1.80;;
43431;SDS011;40365;41.866;21.942;2022-07-15T06:57:46;3.47;;;1.95;;
43431;SDS011;40365;41.866;21.942;2022-07-15T07:00:13;7.53;;;2.53;;
43431;SDS011;40365;41.866;21.942;2022-07-15T07:02:40;5.53;;;2.25;;
43431;SDS011;40365;41.866;21.942;2022-07-15T07:05:06;5.00;;;2.40;;
43431;SDS011;40365;41.866;21.942;2022-07-15T07:07:33;6.20;;;1.92;;
43431;SDS011;40365;41.866;21.942;2022-07-15T07:10:00;6.10;;;2.15;;
43431;SDS011;40365;41.866;21.942;2022-07-15T07:12:26;5.45;;;1.90;;
43431;SDS011;40365;41.866;21.942;2022-07-15T07:18:29;5.03;;;1.85;;
43431;SDS011;40365;41.866;21.942;2022-07-15T07:21:28;4.90;;;1.70;;
43431;SDS011;40365;41.866;21.942;2022-07-15T07:23:54;4.95;;;1.73;;
43431;SDS011;40365;41.866;21.942;2022-07-15T07:26:20;4.53;;;1.90;;
43431;SDS011;40365;41.866;21.942;2022-07-15T07:30:21;3.20;;;1.95;;
43431;SDS011;40365;41.866;21.942;2022-07-15T07:33:55;4.55;;;1.88;;
43431;SDS011;40365;41.866;21.942;2022-07-15T07:36:47;4.75;;;2.20;;
43431;SDS011;40365;41.866;21.942;2022-07-15T07:39:40;5.47;;;2.40;;
43431;SDS011;40365;41.866;21.942;2022-07-15T07:42:07;3.92;;;1.77;;
43431;SDS011;40365;41.866;21.942;2022-07-15T07:44:49;4.25;;;1.80;;
43431;SDS011;40365;41.866;21.942;2022-07-15T07:47:16;6.38;;;2.25;;
43431;SDS011;40365;41.866;21.942;2022-07-15T07:49:42;6.60;;;2.63;;
43431;SDS011;40365;41.866;21.942;2022-07-15T07:53:56;4.90;;;1.90;;
43431;SDS011;40365;41.866;21.942;2022-07-15T07:56:23;3.40;;;1.38;;
43431;SDS011;40365;41.866;21.942;2022-07-15T07:58:49;7.22;;;1.95;;
43431;SDS011;40365;41.866;21.942;2022-07-15T08:01:15;3.58;;;1.77;;
43431;SDS011;40365;41.866;21.942;2022-07-15T08:03:42;4.45;;;1.92;;
43431;SDS011;40365;41.866;21.942;2022-07-15T08:07:24;4.65;;;2.13;;
43431;SDS011;40365;41.866;21.942;2022-07-15T08:09:50;2.95;;;1.40;;
43431;SDS011;40365;41.866;21.942;2022-07-15T08:12:16;4.43;;;1.60;;
43431;SDS011;40365;41.866;21.942;2022-07-15T08:14:42;2.97;;;1.48;;
43431;SDS011;40365;41.866;21.942;2022-07-15T08:17:09;3.58;;;1.67;;
43431;SDS011;40365;41.866;21.942;2022-07-15T08:19:35;2.20;;;1.27;;
43431;SDS011;40365;41.866;21.942;2022-07-15T08:25:05;7.30;;;1.60;;
43431;SDS011;40365;41.866;21.942;2022-07-15T08:27:31;3.88;;;1.40;;
43431;SDS011;40365;41.866;21.942;2022-07-15T08:29:57;4.57;;;1.55;;
43431;SDS011;40365;41.866;21.942;2022-07-15T08:32:23;3.72;;;1.85;;
43431;SDS011;40365;41.866;21.942;2022-07-15T08:34:49;6.63;;;1.90;;
43431;SDS011;40365;41.866;21.942;2022-07-15T08:37:15;3.75;;;1.58;;
43431;SDS011;40365;41.866;21.942;2022-07-15T08:39:42;3.30;;;1.50;;
43431;SDS011;40365;41.866;21.942;2022-07-15T08:42:08;4.15;;;1.45;;
43431;SDS011;40365;41.866;21.942;2022-07-15T08:44:35;3.05;;;1.52;;
43431;SDS011;40365;41.866;21.942;2022-07-15T08:47:02;2.42;;;1.38;;
43431;SDS011;40365;41.866;21.942;2022-07-15T08:49:29;4.00;;;1.50;;
43431;SDS011;40365;41.866;21.942;2022-07-15T08:51:56;4.22;;;1.80;;
43431;SDS011;40365;41.866;21.942;2022-07-15T08:54:23;3.83;;;1.30;;
43431;SDS011;40365;41.866;21.942;2022-07-15T08:56:50;2.53;;;1.30;;
43431;SDS011;40365;41.866;21.942;2022-07-15T08:59:16;4.30;;;1.33;;
43431;SDS011;40365;41.866;21.942;2022-07-15T09:01:44;3.28;;;1.40;;
43431;SDS011;40365;41.866;21.942;2022-07-15T09:04:11;2.67;;;1.25;;
43431;SDS011;40365;41.866;21.942;2022-07-15T09:06:38;3.10;;;1.45;;
43431;SDS011;40365;41.866;21.942;2022-07-15T09:11:53;4.78;;;1.60;;
43431;SDS011;40365;41.866;21.942;2022-07-15T09:14:21;5.33;;;1.60;;
43431;SDS011;40365;41.866;21.942;2022-07-15T09:16:47;2.60;;;1.40;;
43431;SDS011;40365;41.866;21.942;2022-07-15T09:19:14;2.33;;;1.17;;
43431;SDS011;40365;41.866;21.942;2022-07-15T09:21:42;1.92;;;1.23;;
43431;SDS011;40365;41.866;21.942;2022-07-15T09:24:18;4.28;;;1.50;;
43431;SDS011;40365;41.866;21.942;2022-07-15T09:26:44;2.15;;;1.20;;
43431;SDS011;40365;41.866;21.942;2022-07-15T09:29:10;4.18;;;1.20;;
43431;SDS011;40365;41.866;21.942;2022-07-15T09:31:58;3.78;;;1.50;;
43431;SDS011;40365;41.866;21.942;2022-07-15T09:35:00;3.03;;;1.20;;
43431;SDS011;40365;41.866;21.942;2022-07-15T09:37:27;2.13;;;1.20;;
43431;SDS011;40365;41.866;21.942;2022-07-15T09:39:56;2.50;;;1.42;;
43431;SDS011;40365;41.866;21.942;2022-07-15T09:42:23;2.33;;;1.00;;
43431;SDS011;40365;41.866;21.942;2022-07-15T09:44:49;3.03;;;1.30;;
43431;SDS011;40365;41.866;21.942;2022-07-15T09:47:17;3.40;;;1.27;;
43431;SDS011;40365;41.866;21.942;2022-07-15T09:49:43;3.58;;;1.20;;
43431;SDS011;40365;41.866;21.942;2022-07-15T09:52:11;2.47;;;1.15;;
43431;SDS011;40365;41.866;21.942;2022-07-15T09:54:40;3.10;;;1.40;;
43431;SDS011;40365;41.866;21.942;2022-07-15T09:57:08;2.13;;;1.15;;
43431;SDS011;40365;41.866;21.942;2022-07-15T09:59:35;1.67;;;1.17;;
43431;SDS011;40365;41.866;21.942;2022-07-15T10:02:02;2.55;;;1.10;;
43431;SDS011;40365;41.866;21.942;2022-07-15T10:04:29;2.72;;;1.20;;
43431;SDS011;40365;41.866;21.942;2022-07-15T10:06:56;1.90;;;1.20;;
43431;SDS011;40365;41.866;21.942;2022-07-15T10:09:30;3.90;;;1.10;;
43431;SDS011;40365;41.866;21.942;2022-07-15T10:12:02;2.30;;;1.30;;
43431;SDS011;40365;41.866;21.942;2022-07-15T10:14:37;4.57;;;1.52;;
43431;SDS011;40365;41.866;21.942;2022-07-15T10:30:20;3.40;;;1.13;;
43431;SDS011;40365;41.866;21.942;2022-07-15T10:35:35;1.55;;;0.90;;
43431;SDS011;40365;41.866;21.942;2022-07-15T10:38:20;1.80;;;0.90;;
43431;SDS011;40365;41.866;21.942;2022-07-15T10:40:59;0.95;;;0.80;;
43431;SDS011;40365;41.866;21.942;2022-07-15T10:43:42;2.25;;;0.90;;
43431;SDS011;40365;41.866;21.942;2022-07-15T10:48:43;0.80;;;0.70;;
43431;SDS011;40365;41.866;21.942;2022-07-15T10:51:10;2.55;;;0.85;;
43431;SDS011;40365;41.866;21.942;2022-07-15T10:53:43;3.20;;;0.90;;
43431;SDS011;40365;41.866;21.942;2022-07-15T11:01:32;2.35;;;0.77;;
43431;SDS011;40365;41.866;21.942;2022-07-15T11:09:47;1.15;;;0.82;;
43431;SDS011;40365;41.866;21.942;2022-07-15T11:12:56;0.77;;;0.77;;
43431;SDS011;40365;41.866;21.942;2022-07-15T11:15:04;1.23;;;0.70;;
43431;SDS011;40365;41.866;21.942;2022-07-15T11:19:58;3.13;;;0.75;;
43431;SDS011;40365;41.866;21.942;2022-07-15T11:22:27;1.63;;;1.00;;
43431;SDS011;40365;41.866;21.942;2022-07-15T11:24:54;1.60;;;0.70;;
43431;SDS011;40365;41.866;21.942;2022-07-15T11:27:21;0.57;;;0.50;;
43431;SDS011;40365;41.866;21.942;2022-07-15T11:29:55;1.75;;;0.60;;
43431;SDS011;40365;41.866;21.942;2022-07-15T11:32:27;2.10;;;0.80;;
43431;SDS011;40365;41.866;21.942;2022-07-15T11:34:55;1.45;;;0.70;;
43431;SDS011;40365;41.866;21.942;2022-07-15T11:37:29;1.20;;;0.70;;
43431;SDS011;40365;41.866;21.942;2022-07-15T11:40:06;1.95;;;0.68;;
43431;SDS011;40365;41.866;21.942;2022-07-15T11:42:33;1.88;;;0.80;;
43431;SDS011;40365;41.866;21.942;2022-07-15T11:45:31;2.33;;;0.80;;
43431;SDS011;40365;41.866;21.942;2022-07-15T11:47:58;1.55;;;0.70;;
43431;SDS011;40365;41.866;21.942;2022-07-15T11:50:24;1.75;;;0.93;;
43431;SDS011;40365;41.866;21.942;2022-07-15T11:52:54;0.88;;;0.60;;
43431;SDS011;40365;41.866;21.942;2022-07-15T11:55:20;1.27;;;0.75;;
43431;SDS011;40365;41.866;21.942;2022-07-15T11:57:47;3.17;;;0.90;;
43431;SDS011;40365;41.866;21.942;2022-07-15T12:00:13;1.25;;;0.52;;
43431;SDS011;40365;41.866;21.942;2022-07-15T12:02:40;3.60;;;0.70;;
43431;SDS011;40365;41.866;21.942;2022-07-15T12:05:07;1.95;;;0.68;;
43431;SDS011;40365;41.866;21.942;2022-07-15T12:10:06;2.03;;;1.00;;
43431;SDS011;40365;41.866;21.942;2022-07-15T12:12:32;2.55;;;0.85;;
43431;SDS011;40365;41.866;21.942;2022-07-15T12:14:58;1.00;;;0.77;;
43431;SDS011;40365;41.866;21.942;2022-07-15T12:17:25;1.25;;;0.55;;
43431;SDS011;40365;41.866;21.942;2022-07-15T12:19:51;3.85;;;0.88;;
43431;SDS011;40365;41.866;21.942;2022-07-15T12:22:23;0.80;;;0.45;;
43431;SDS011;40365;41.866;21.942;2022-07-15T12:25:13;1.35;;;0.50;;
43431;SDS011;40365;41.866;21.942;2022-07-15T12:27:43;2.13;;;0.63;;
43431;SDS011;40365;41.866;21.942;2022-07-15T12:30:09;2.28;;;0.50;;
43431;SDS011;40365;41.866;21.942;2022-07-15T12:32:36;2.08;;;0.52;;
43431;SDS011;40365;41.866;21.942;2022-07-15T12:35:03;1.95;;;0.63;;
43431;SDS011;40365;41.866;21.942;2022-07-15T12:39:56;2.15;;;0.70;;
43431;SDS011;40365;41.866;21.942;2022-07-15T12:42:23;1.92;;;0.63;;
43431;SDS011;40365;41.866;21.942;2022-07-15T12:45:07;1.83;;;0.50;;
43431;SDS011;40365;41.866;21.942;2022-07-15T12:47:34;1.08;;;0.57;;
43431;SDS011;40365;41.866;21.942;2022-07-15T12:50:00;1.42;;;0.70;;
43431;SDS011;40365;41.866;21.942;2022-07-15T12:52:34;1.58;;;0.60;;
43431;SDS011;40365;41.866;21.942;2022-07-15T12:55:11;2.25;;;0.65;;
43431;SDS011;40365;41.866;21.942;2022-07-15T12:57:38;1.60;;;0.60;;
43431;SDS011;40365;41.866;21.942;2022-07-15T13:05:22;2.42;;;0.60;;
43431;SDS011;40365;41.866;21.942;2022-07-15T13:07:48;1.63;;;0.60;;
43431;SDS011;40365;41.866;21.942;2022-07-15T13:10:14;1.48;;;0.75;;
43431;SDS011;40365;41.866;21.942;2022-07-15T13:12:41;1.75;;;0.70;;
43431;SDS011;40365;41.866;21.942;2022-07-15T13:15:07;1.77;;;0.63;;
43431;SDS011;40365;41.866;21.942;2022-07-15T13:17:33;1.83;;;0.70;;
43431;SDS011;40365;41.866;21.942;2022-07-15T13:20:00;1.38;;;0.80;;
43431;SDS011;40365;41.866;21.942;2022-07-15T13:22:27;1.33;;;0.68;;
43431;SDS011;40365;41.866;21.942;2022-07-15T13:24:54;4.15;;;0.65;;
43431;SDS011;40365;41.866;21.942;2022-07-15T13:27:20;1.23;;;0.70;;
43431;SDS011;40365;41.866;21.942;2022-07-15T13:29:46;1.63;;;0.70;;
43431;SDS011;40365;41.866;21.942;2022-07-15T13:32:12;1.70;;;0.73;;
43431;SDS011;40365;41.866;21.942;2022-07-15T13:34:39;1.52;;;0.60;;
43431;SDS011;40365;41.866;21.942;2022-07-15T13:37:05;1.75;;;0.63;;
43431;SDS011;40365;41.866;21.942;2022-07-15T13:39:31;3.50;;;0.70;;
43431;SDS011;40365;41.866;21.942;2022-07-15T13:41:57;1.77;;;0.70;;
43431;SDS011;40365;41.866;21.942;2022-07-15T13:44:23;3.42;;;0.75;;
43431;SDS011;40365;41.866;21.942;2022-07-15T13:46:49;1.25;;;0.77;;
43431;SDS011;40365;41.866;21.942;2022-07-15T13:49:15;1.00;;;0.60;;
43431;SDS011;40365;41.866;21.942;2022-07-15T13:51:41;2.22;;;1.00;;
43431;SDS011;40365;41.866;21.942;2022-07-15T13:54:08;1.05;;;0.50;;
43431;SDS011;40365;41.866;21.942;2022-07-15T13:56:34;1.95;;;0.60;;
43431;SDS011;40365;41.866;21.942;2022-07-15T13:59:02;2.10;;;0.55;;
43431;SDS011;40365;41.866;21.942;2022-07-15T14:01:29;2.60;;;0.93;;
43431;SDS011;40365;41.866;21.942;2022-07-15T14:03:57;3.17;;;0.90;;
43431;SDS011;40365;41.866;21.942;2022-07-15T14:06:23;1.08;;;0.80;;
43431;SDS011;40365;41.866;21.942;2022-07-15T14:08:49;1.92;;;0.68;;
43431;SDS011;40365;41.866;21.942;2022-07-15T14:11:15;2.20;;;0.70;;
43431;SDS011;40365;41.866;21.942;2022-07-15T14:13:43;1.17;;;0.57;;
43431;SDS011;40365;41.866;21.942;2022-07-15T14:16:09;1.58;;;1.00;;
43431;SDS011;40365;41.866;21.942;2022-07-15T14:18:35;2.20;;;0.73;;
43431;SDS011;40365;41.866;21.942;2022-07-15T14:21:14;1.77;;;0.70;;
43431;SDS011;40365;41.866;21.942;2022-07-15T14:23:40;0.73;;;0.63;;
43431;SDS011;40365;41.866;21.942;2022-07-15T14:26:07;1.27;;;0.70;;
43431;SDS011;40365;41.866;21.942;2022-07-15T14:28:33;1.95;;;0.70;;
43431;SDS011;40365;41.866;21.942;2022-07-15T14:30:59;0.98;;;0.60;;
43431;SDS011;40365;41.866;21.942;2022-07-15T14:33:26;1.77;;;0.60;;
43431;SDS011;40365;41.866;21.942;2022-07-15T14:35:52;0.90;;;0.50;;
43431;SDS011;40365;41.866;21.942;2022-07-15T14:38:18;1.15;;;0.50;;
43431;SDS011;40365;41.866;21.942;2022-07-15T14:40:44;3.78;;;0.82;;
43431;SDS011;40365;41.866;21.942;2022-07-15T14:43:10;0.82;;;0.60;;
43431;SDS011;40365;41.866;21.942;2022-07-15T14:45:37;1.40;;;0.73;;
43431;SDS011;40365;41.866;21.942;2022-07-15T14:48:03;1.08;;;0.68;;
43431;SDS011;40365;41.866;21.942;2022-07-15T14:50:29;0.88;;;0.57;;
43431;SDS011;40365;41.866;21.942;2022-07-15T14:53:03;2.95;;;0.80;;
43431;SDS011;40365;41.866;21.942;2022-07-15T14:55:31;0.70;;;0.60;;
43431;SDS011;40365;41.866;21.942;2022-07-15T14:57:57;0.90;;;0.65;;
43431;SDS011;40365;41.866;21.942;2022-07-15T15:00:23;1.20;;;0.68;;
43431;SDS011;40365;41.866;21.942;2022-07-15T15:02:50;2.53;;;0.75;;
43431;SDS011;40365;41.866;21.942;2022-07-15T15:05:16;1.90;;;0.60;;
43431;SDS011;40365;41.866;21.942;2022-07-15T15:07:42;0.93;;;0.60;;
43431;SDS011;40365;41.866;21.942;2022-07-15T15:10:09;1.98;;;0.70;;
43431;SDS011;40365;41.866;21.942;2022-07-15T15:12:35;5.68;;;0.60;;
43431;SDS011;40365;41.866;21.942;2022-07-15T15:15:01;0.93;;;0.50;;
43431;SDS011;40365;41.866;21.942;2022-07-15T15:17:28;1.45;;;0.80;;
43431;SDS011;40365;41.866;21.942;2022-07-15T15:19:54;2.40;;;0.80;;
43431;SDS011;40365;41.866;21.942;2022-07-15T15:22:20;2.72;;;1.17;;
43431;SDS011;40365;41.866;21.942;2022-07-15T15:24:46;2.25;;;0.88;;
43431;SDS011;40365;41.866;21.942;2022-07-15T15:27:12;2.38;;;0.80;;
43431;SDS011;40365;41.866;21.942;2022-07-15T15:29:40;3.03;;;1.08;;
43431;SDS011;40365;41.866;21.942;2022-07-15T15:32:06;0.60;;;0.60;;
43431;SDS011;40365;41.866;21.942;2022-07-15T15:34:38;2.47;;;0.85;;
43431;SDS011;40365;41.866;21.942;2022-07-15T15:37:04;2.92;;;0.90;;
43431;SDS011;40365;41.866;21.942;2022-07-15T15:39:31;1.63;;;0.90;;
43431;SDS011;40365;41.866;21.942;2022-07-15T15:41:57;1.25;;;0.63;;
43431;SDS011;40365;41.866;21.942;2022-07-15T15:44:23;2.55;;;1.00;;
43431;SDS011;40365;41.866;21.942;2022-07-15T15:46:49;1.08;;;0.50;;
43431;SDS011;40365;41.866;21.942;2022-07-15T15:49:15;1.48;;;0.93;;
43431;SDS011;40365;41.866;21.942;2022-07-15T15:51:41;1.17;;;0.80;;
43431;SDS011;40365;41.866;21.942;2022-07-15T15:54:09;0.85;;;0.77;;
43431;SDS011;40365;41.866;21.942;2022-07-15T15:56:35;1.50;;;0.82;;
43431;SDS011;40365;41.866;21.942;2022-07-15T15:59:02;1.00;;;0.70;;
43431;SDS011;40365;41.866;21.942;2022-07-15T16:01:28;1.08;;;0.55;;
43431;SDS011;40365;41.866;21.942;2022-07-15T16:03:54;0.85;;;0.60;;
43431;SDS011;40365;41.866;21.942;2022-07-15T16:06:20;3.15;;;0.80;;
43431;SDS011;40365;41.866;21.942;2022-07-15T16:08:47;5.82;;;1.95;;
43431;SDS011;40365;41.866;21.942;2022-07-15T16:11:13;1.90;;;0.95;;
43431;SDS011;40365;41.866;21.942;2022-07-15T16:13:40;2.10;;;0.90;;
43431;SDS011;40365;41.866;21.942;2022-07-15T16:16:06;2.85;;;0.85;;
43431;SDS011;40365;41.866;21.942;2022-07-15T16:18:32;1.83;;;0.93;;
43431;SDS011;40365;41.866;21.942;2022-07-15T16:20:58;2.50;;;0.90;;
43431;SDS011;40365;41.866;21.942;2022-07-15T16:23:24;2.03;;;0.90;;
43431;SDS011;40365;41.866;21.942;2022-07-15T16:25:50;3.63;;;1.10;;
43431;SDS011;40365;41.866;21.942;2022-07-15T16:28:17;2.63;;;1.00;;
43431;SDS011;40365;41.866;21.942;2022-07-15T16:30:43;2.22;;;0.95;;
43431;SDS011;40365;41.866;21.942;2022-07-15T16:33:10;2.72;;;1.20;;
43431;SDS011;40365;41.866;21.942;2022-07-15T16:35:37;2.42;;;1.00;;
43431;SDS011;40365;41.866;21.942;2022-07-15T16:38:03;4.63;;;0.90;;
43431;SDS011;40365;41.866;21.942;2022-07-15T16:40:29;1.67;;;0.90;;
43431;SDS011;40365;41.866;21.942;2022-07-15T16:42:56;3.22;;;0.98;;
43431;SDS011;40365;41.866;21.942;2022-07-15T16:45:22;1.48;;;1.05;;
43431;SDS011;40365;41.866;21.942;2022-07-15T16:47:48;2.38;;;1.30;;
43431;SDS011;40365;41.866;21.942;2022-07-15T16:50:15;1.67;;;1.10;;
43431;SDS011;40365;41.866;21.942;2022-07-15T16:52:41;1.42;;;0.90;;
43431;SDS011;40365;41.866;21.942;2022-07-15T16:55:08;3.75;;;1.30;;
43431;SDS011;40365;41.866;21.942;2022-07-15T16:57:34;2.13;;;1.10;;
43431;SDS011;40365;41.866;21.942;2022-07-15T17:00:01;2.67;;;1.33;;
43431;SDS011;40365;41.866;21.942;2022-07-15T17:02:27;3.13;;;1.08;;
43431;SDS011;40365;41.866;21.942;2022-07-15T17:04:53;2.33;;;1.15;;
43431;SDS011;40365;41.866;21.942;2022-07-15T17:07:20;2.58;;;1.27;;
43431;SDS011;40365;41.866;21.942;2022-07-15T17:09:46;3.22;;;1.42;;
43431;SDS011;40365;41.866;21.942;2022-07-15T17:12:12;2.88;;;1.38;;
43431;SDS011;40365;41.866;21.942;2022-07-15T17:14:38;2.20;;;1.23;;
43431;SDS011;40365;41.866;21.942;2022-07-15T17:17:05;3.30;;;1.60;;
43431;SDS011;40365;41.866;21.942;2022-07-15T17:19:31;5.60;;;1.95;;
43431;SDS011;40365;41.866;21.942;2022-07-15T17:21:57;3.03;;;1.30;;
43431;SDS011;40365;41.866;21.942;2022-07-15T17:24:23;4.80;;;1.30;;
43431;SDS011;40365;41.866;21.942;2022-07-15T17:26:50;2.33;;;1.35;;
43431;SDS011;40365;41.866;21.942;2022-07-15T17:29:16;3.65;;;1.40;;
43431;SDS011;40365;41.866;21.942;2022-07-15T17:31:42;2.40;;;1.00;;
43431;SDS011;40365;41.866;21.942;2022-07-15T17:34:08;2.50;;;1.15;;